Time;durP1;ratioP1;P1;durP2;ratioP2;P2;SDS_P1;SDS_P2;PMS_P1;PMS_P2;Temp;Humidity;BMP_temperature;BMP_pressure;BME280_temperature;BME280_humidity;BME280_pressure;Samples;Min_cycle;Max_cycle;Signal;HPM_P1;HPM_P2
2022/04/02 00:00:47;;;;;;;3.20;0.73;;;;;;;;;;5301820;28;20008;-68
2022/04/02 00:03:19;;;;;;;3.72;0.90;;;;;;;;;;5301763;28;20408;-69
2022/04/02 00:05:50;;;;;;;2.07;0.70;;;;;;;;;;5301950;28;20374;-69
2022/04/02 00:08:22;;;;;;;4.50;0.80;;;;;;;;;;5302234;28;20087;-68
2022/04/02 00:10:53;;;;;;;3.97;0.67;;;;;;;;;;5301184;28;20085;-68
2022/04/02 00:13:24;;;;;;;1.60;0.57;;;;;;;;;;5302454;28;20038;-68
2022/04/02 00:15:57;;;;;;;3.63;1.00;;;;;;;;;;5300559;28;20072;-69
2022/04/02 00:18:31;;;;;;;2.23;0.70;;;;;;;;;;5305947;28;20020;-68
2022/04/02 00:21:02;;;;;;;4.00;0.80;;;;;;;;;;5306135;28;20020;-68
2022/04/02 00:23:39;;;;;;;3.37;0.80;;;;;;;;;;5305556;28;20077;-68
2022/04/02 00:26:11;;;;;;;4.03;0.70;;;;;;;;;;5306291;28;20020;-69
2022/04/02 00:28:43;;;;;;;3.57;1.33;;;;;;;;;;5306074;28;20432;-69
2022/04/02 00:31:15;;;;;;;1.80;0.70;;;;;;;;;;5305018;28;20053;-68
2022/04/02 00:33:47;;;;;;;4.10;0.63;;;;;;;;;;5305652;28;20515;-67
2022/04/02 00:36:19;;;;;;;2.63;0.70;;;;;;;;;;5306202;28;20101;-67
2022/04/02 00:38:50;;;;;;;2.70;0.80;;;;;;;;;;5304720;28;20008;-68
2022/04/02 00:41:21;;;;;;;1.73;0.80;;;;;;;;;;5306242;28;20024;-68
2022/04/02 00:43:56;;;;;;;2.43;0.80;;;;;;;;;;5304480;28;20058;-68
2022/04/02 00:46:28;;;;;;;1.97;0.70;;;;;;;;;;5306126;28;20497;-68
2022/04/02 00:48:59;;;;;;;3.23;0.80;;;;;;;;;;5305154;28;20016;-68
2022/04/02 00:51:31;;;;;;;4.28;0.70;;;;;;;;;;5304779;28;20043;-68
2022/04/02 00:54:02;;;;;;;2.27;0.80;;;;;;;;;;5305363;28;20012;-68
2022/04/02 00:56:33;;;;;;;3.20;0.57;;;;;;;;;;5305610;28;20037;-68
2022/04/02 00:59:05;;;;;;;4.14;0.70;;;;;;;;;;5304687;28;20027;-67
2022/04/02 01:01:37;;;;;;;3.67;0.73;;;;;;;;;;5305359;28;20064;-67
2022/04/02 01:04:09;;;;;;;4.32;0.90;;;;;;;;;;5305303;28;20483;-68
2022/04/02 01:06:41;;;;;;;2.50;0.87;;;;;;;;;;5304397;28;20040;-68
2022/04/02 01:09:12;;;;;;;3.37;0.60;;;;;;;;;;5305236;28;20008;-68
2022/04/02 01:11:45;;;;;;;2.10;0.77;;;;;;;;;;5304955;28;20023;-69
2022/04/02 01:14:16;;;;;;;4.83;0.70;;;;;;;;;;5304662;28;20124;-68
2022/04/02 01:16:47;;;;;;;1.92;0.68;;;;;;;;;;5304565;28;20140;-70
2022/04/02 01:19:19;;;;;;;2.57;0.80;;;;;;;;;;5304433;28;20034;-69
2022/04/02 01:21:50;;;;;;;1.73;0.50;;;;;;;;;;5304693;28;20094;-68
2022/04/02 01:24:21;;;;;;;1.45;0.60;;;;;;;;;;5305333;28;20111;-68
2022/04/02 01:26:52;;;;;;;2.30;0.70;;;;;;;;;;5303720;28;20028;-68
2022/04/02 01:29:24;;;;;;;3.20;0.75;;;;;;;;;;5304761;28;20051;-68
2022/04/02 01:31:55;;;;;;;3.07;0.73;;;;;;;;;;5304638;28;20020;-67
2022/04/02 01:34:28;;;;;;;1.90;0.66;;;;;;;;;;5304253;28;20020;-67
2022/04/02 01:36:59;;;;;;;2.80;0.70;;;;;;;;;;5304421;28;20313;-67
2022/04/02 01:39:31;;;;;;;2.30;0.68;;;;;;;;;;5304591;28;20023;-67
2022/04/02 01:42:06;;;;;;;2.98;0.84;;;;;;;;;;5303731;28;20016;-68
2022/04/02 01:44:37;;;;;;;2.43;0.70;;;;;;;;;;5304597;28;20035;-68
2022/04/02 01:47:08;;;;;;;1.90;0.90;;;;;;;;;;5303650;28;20024;-67
2022/04/02 01:49:39;;;;;;;2.97;0.70;;;;;;;;;;5304428;28;20028;-68
2022/04/02 01:52:11;;;;;;;2.90;0.70;;;;;;;;;;5304242;28;20035;-68
2022/04/02 01:54:43;;;;;;;2.07;0.60;;;;;;;;;;5303314;28;20028;-68
2022/04/02 01:57:14;;;;;;;3.70;0.90;;;;;;;;;;5304188;28;20109;-68
2022/04/02 01:59:48;;;;;;;1.90;0.70;;;;;;;;;;5303865;28;20113;-68
2022/04/02 02:02:22;;;;;;;3.00;0.63;;;;;;;;;;5303692;28;20478;-68
2022/04/02 02:04:53;;;;;;;5.17;0.70;;;;;;;;;;5303627;28;20039;-69
2022/04/02 02:07:26;;;;;;;1.40;0.56;;;;;;;;;;5304318;28;20375;-68
2022/04/02 02:09:57;;;;;;;3.83;0.80;;;;;;;;;;5302776;28;20101;-68
2022/04/02 02:12:30;;;;;;;2.20;0.80;;;;;;;;;;5304437;28;20444;-68
2022/04/02 02:15:01;;;;;;;1.90;0.70;;;;;;;;;;5304058;28;20031;-68
2022/04/02 02:17:32;;;;;;;2.85;0.60;;;;;;;;;;5302635;28;20059;-69
2022/04/02 02:20:03;;;;;;;2.47;0.70;;;;;;;;;;5303937;28;20515;-69
2022/04/02 02:22:34;;;;;;;2.00;0.80;;;;;;;;;;5303164;28;20024;-68
2022/04/02 02:25:06;;;;;;;3.20;0.70;;;;;;;;;;5303469;28;20020;-68
2022/04/02 02:27:38;;;;;;;1.70;0.53;;;;;;;;;;5303577;28;20497;-68
2022/04/02 02:30:11;;;;;;;1.47;0.60;;;;;;;;;;5302555;28;20047;-68
2022/04/02 02:32:43;;;;;;;3.47;0.60;;;;;;;;;;5303578;28;20024;-68
2022/04/02 02:38:06;;;;;;;2.83;0.70;;;;;;;;;;5302929;28;20063;-69
2022/04/02 02:40:37;;;;;;;3.77;0.80;;;;;;;;;;5302690;28;20016;-69
2022/04/02 02:43:09;;;;;;;2.00;0.70;;;;;;;;;;5303460;28;20027;-69
2022/04/02 02:45:40;;;;;;;2.70;0.80;;;;;;;;;;5302428;28;20069;-69
2022/04/02 02:48:11;;;;;;;1.83;0.60;;;;;;;;;;5303160;28;20112;-69
2022/04/02 02:50:42;;;;;;;2.80;0.70;;;;;;;;;;5302340;28;20081;-68
2022/04/02 02:53:13;;;;;;;2.44;0.70;;;;;;;;;;5303205;28;20020;-68
2022/04/02 02:55:45;;;;;;;2.44;0.62;;;;;;;;;;5302746;28;20032;-69
2022/04/02 02:58:16;;;;;;;2.12;0.88;;;;;;;;;;5302526;28;20028;-69
2022/04/02 03:00:47;;;;;;;1.80;0.62;;;;;;;;;;5302745;28;20099;-69
2022/04/02 03:03:18;;;;;;;5.13;1.53;;;;;;;;;;5303214;28;20012;-69
2022/04/02 03:05:50;;;;;;;2.57;0.57;;;;;;;;;;5301943;28;20024;-69
2022/04/02 03:08:21;;;;;;;1.53;0.70;;;;;;;;;;5303331;28;20024;-69
2022/04/02 03:10:54;;;;;;;2.17;0.80;;;;;;;;;;5302476;28;20028;-69
2022/04/02 03:13:25;;;;;;;2.27;0.53;;;;;;;;;;5302351;28;20016;-69
2022/04/02 03:15:56;;;;;;;1.65;0.70;;;;;;;;;;5302100;28;20059;-69
2022/04/02 03:18:28;;;;;;;2.97;1.20;;;;;;;;;;5303141;28;20062;-69
2022/04/02 03:20:59;;;;;;;2.15;0.82;;;;;;;;;;5301537;28;20118;-69
2022/04/02 03:23:30;;;;;;;3.42;0.50;;;;;;;;;;5302608;28;20024;-69
2022/04/02 03:26:01;;;;;;;2.55;0.50;;;;;;;;;;5301628;28;20387;-69
2022/04/02 03:28:32;;;;;;;2.78;0.60;;;;;;;;;;5302469;28;20016;-69
2022/04/02 03:31:03;;;;;;;3.03;0.70;;;;;;;;;;5302706;28;20120;-69
2022/04/02 03:33:35;;;;;;;2.83;0.80;;;;;;;;;;5301575;28;20048;-69
2022/04/02 03:36:06;;;;;;;1.50;0.50;;;;;;;;;;5302324;28;20498;-69
2022/04/02 03:38:38;;;;;;;2.93;0.60;;;;;;;;;;5302338;28;20028;-69
2022/04/02 03:41:09;;;;;;;3.40;0.70;;;;;;;;;;5301453;28;20016;-69
2022/04/02 03:43:40;;;;;;;1.64;0.52;;;;;;;;;;5302334;28;20027;-69
2022/04/02 03:49:09;;;;;;;1.70;0.63;;;;;;;;;;5262691;28;20109;-69
2022/04/02 03:51:40;;;;;;;2.00;0.70;;;;;;;;;;5302317;28;20020;-69
2022/04/02 03:54:12;;;;;;;1.90;0.60;;;;;;;;;;5301355;28;20147;-69
2022/04/02 03:56:43;;;;;;;5.25;0.70;;;;;;;;;;5301751;28;20055;-69
2022/04/02 03:59:14;;;;;;;2.84;0.70;;;;;;;;;;5302068;28;20034;-69
2022/04/02 04:01:45;;;;;;;4.13;0.93;;;;;;;;;;5300953;28;20432;-69
2022/04/02 04:04:16;;;;;;;2.50;0.60;;;;;;;;;;5302447;28;20012;-69
2022/04/02 04:06:48;;;;;;;3.30;0.80;;;;;;;;;;5301823;28;20118;-69
2022/04/02 04:09:19;;;;;;;2.17;0.63;;;;;;;;;;5301711;28;20016;-69
2022/04/02 04:11:50;;;;;;;2.33;0.60;;;;;;;;;;5301811;28;20024;-69
2022/04/02 04:14:24;;;;;;;2.43;0.70;;;;;;;;;;5302165;28;20192;-69
2022/04/02 04:16:55;;;;;;;4.17;0.80;;;;;;;;;;5300575;28;20047;-69
2022/04/02 04:19:26;;;;;;;2.00;0.60;;;;;;;;;;5302203;28;20027;-69
2022/04/02 04:21:58;;;;;;;2.67;0.83;;;;;;;;;;5300994;28;20016;-69
2022/04/02 04:24:30;;;;;;;2.63;0.70;;;;;;;;;;5301876;28;20008;-69
2022/04/02 04:27:01;;;;;;;2.57;0.50;;;;;;;;;;5301788;28;20077;-69
2022/04/02 04:29:32;;;;;;;2.13;0.70;;;;;;;;;;5301180;28;20366;-69
2022/04/02 04:32:04;;;;;;;2.72;0.75;;;;;;;;;;5301685;28;20111;-69
2022/04/02 04:34:35;;;;;;;2.90;0.80;;;;;;;;;;5301591;28;20024;-69
2022/04/02 04:37:07;;;;;;;3.00;0.60;;;;;;;;;;5300808;28;20020;-69
2022/04/02 04:39:39;;;;;;;1.60;0.60;;;;;;;;;;5301510;28;20024;-69
2022/04/02 04:42:10;;;;;;;3.03;0.90;;;;;;;;;;5301572;28;20099;-69
2022/04/02 04:44:41;;;;;;;2.33;0.70;;;;;;;;;;5300934;28;20053;-69
2022/04/02 04:47:12;;;;;;;3.37;1.00;;;;;;;;;;5301567;28;20020;-69
2022/04/02 04:49:43;;;;;;;2.00;0.60;;;;;;;;;;5301505;28;20054;-69
2022/04/02 04:52:14;;;;;;;2.25;0.60;;;;;;;;;;5301091;28;20030;-69
2022/04/02 04:54:46;;;;;;;5.13;0.80;;;;;;;;;;5301181;28;20419;-69
2022/04/02 04:57:17;;;;;;;2.78;0.90;;;;;;;;;;5300950;28;20544;-69
2022/04/02 04:59:48;;;;;;;1.70;0.67;;;;;;;;;;5301210;28;20020;-69
2022/04/02 05:02:20;;;;;;;2.55;0.68;;;;;;;;;;5301721;28;20031;-69
2022/04/02 05:04:51;;;;;;;2.40;0.60;;;;;;;;;;5304344;28;20459;-69
2022/04/02 05:07:23;;;;;;;2.13;0.70;;;;;;;;;;5305481;28;20026;-69
2022/04/02 05:09:54;;;;;;;2.70;0.70;;;;;;;;;;5304647;28;20073;-69
2022/04/02 05:12:25;;;;;;;1.77;0.53;;;;;;;;;;5304343;28;20089;-68
2022/04/02 05:14:57;;;;;;;2.00;0.77;;;;;;;;;;5304477;28;20475;-68
2022/04/02 05:17:28;;;;;;;3.00;0.70;;;;;;;;;;5304922;28;20449;-68
2022/04/02 05:19:59;;;;;;;1.87;0.70;;;;;;;;;;5303933;28;20023;-68
2022/04/02 05:22:31;;;;;;;3.73;0.87;;;;;;;;;;5304803;28;20085;-68
2022/04/02 05:25:02;;;;;;;2.07;0.60;;;;;;;;;;5304822;28;20526;-68
2022/04/02 05:27:34;;;;;;;2.33;0.70;;;;;;;;;;5303848;28;20442;-69
2022/04/02 05:30:05;;;;;;;2.40;0.70;;;;;;;;;;5304747;28;20020;-68
2022/04/02 05:32:36;;;;;;;2.10;0.63;;;;;;;;;;5303748;28;20038;-68
2022/04/02 05:35:08;;;;;;;1.20;0.50;;;;;;;;;;5304575;28;20027;-69
2022/04/02 05:37:42;;;;;;;2.10;0.50;;;;;;;;;;5304335;28;20509;-68
2022/04/02 05:40:14;;;;;;;4.00;0.60;;;;;;;;;;5303698;28;20024;-68
2022/04/02 05:42:48;;;;;;;1.47;0.50;;;;;;;;;;5304144;28;20379;-68
2022/04/02 05:45:19;;;;;;;3.30;0.50;;;;;;;;;;5304624;28;20084;-68
2022/04/02 05:47:51;;;;;;;1.80;0.67;;;;;;;;;;5303445;28;20019;-69
2022/04/02 05:50:24;;;;;;;2.70;1.10;;;;;;;;;;5304968;28;20016;-69
2022/04/02 05:52:55;;;;;;;1.60;0.60;;;;;;;;;;5304157;28;20020;-68
2022/04/02 05:55:26;;;;;;;3.13;0.60;;;;;;;;;;5303852;28;20027;-68
2022/04/02 05:57:58;;;;;;;2.40;0.70;;;;;;;;;;5303994;28;20337;-68
2022/04/02 06:00:30;;;;;;;3.03;0.80;;;;;;;;;;5303399;28;20024;-69
2022/04/02 06:03:02;;;;;;;2.73;1.10;;;;;;;;;;5304070;28;20107;-68
2022/04/02 06:05:33;;;;;;;2.90;0.60;;;;;;;;;;5304137;28;20518;-68
2022/04/02 06:08:04;;;;;;;3.33;0.70;;;;;;;;;;5303039;28;20091;-68
2022/04/02 06:10:36;;;;;;;1.73;0.70;;;;;;;;;;5303768;28;20467;-68
2022/04/02 06:13:07;;;;;;;1.98;0.70;;;;;;;;;;5303732;28;20020;-68
2022/04/02 06:15:38;;;;;;;2.77;0.63;;;;;;;;;;5301772;28;20032;-68
2022/04/02 06:18:10;;;;;;;3.80;0.90;;;;;;;;;;5304059;28;20099;-68
2022/04/02 06:20:41;;;;;;;2.67;0.60;;;;;;;;;;5303754;28;20023;-68
2022/04/02 06:23:13;;;;;;;2.10;0.57;;;;;;;;;;5302830;28;20016;-68
2022/04/02 06:25:44;;;;;;;6.57;0.80;;;;;;;;;;5303129;28;20020;-68
2022/04/02 06:28:16;;;;;;;2.60;0.70;;;;;;;;;;5303800;28;20024;-68
2022/04/02 06:30:48;;;;;;;1.70;0.60;;;;;;;;;;5302528;28;20429;-68
2022/04/02 06:33:19;;;;;;;1.40;0.60;;;;;;;;;;5303501;28;20070;-68
2022/04/02 06:35:50;;;;;;;3.05;0.60;;;;;;;;;;5302314;28;20032;-68
2022/04/02 06:38:21;;;;;;;2.25;0.60;;;;;;;;;;5303837;28;20032;-68
2022/04/02 06:40:53;;;;;;;3.10;0.93;;;;;;;;;;5303196;28;20093;-68
2022/04/02 06:43:24;;;;;;;2.63;0.70;;;;;;;;;;5302877;28;20028;-68
2022/04/02 06:45:56;;;;;;;3.53;0.80;;;;;;;;;;5302781;28;20039;-68
2022/04/02 06:48:27;;;;;;;3.53;0.80;;;;;;;;;;5303222;28;20066;-68
2022/04/02 06:50:58;;;;;;;3.00;0.60;;;;;;;;;;5301815;28;20052;-69
2022/04/02 06:53:29;;;;;;;4.60;0.80;;;;;;;;;;5302785;28;20402;-68
2022/04/02 06:56:00;;;;;;;2.13;0.60;;;;;;;;;;5303007;28;20032;-68
2022/04/02 06:58:33;;;;;;;3.60;0.80;;;;;;;;;;5301906;28;20089;-68
2022/04/02 07:01:05;;;;;;;3.23;0.60;;;;;;;;;;5303134;28;20050;-68
2022/04/02 07:03:37;;;;;;;1.83;0.60;;;;;;;;;;5302431;28;20408;-68
2022/04/02 07:06:08;;;;;;;6.78;0.80;;;;;;;;;;5302831;28;20368;-68
2022/04/02 07:08:39;;;;;;;2.67;0.77;;;;;;;;;;5302752;28;20137;-68
2022/04/02 07:11:10;;;;;;;2.98;0.60;;;;;;;;;;5301870;28;20415;-68
2022/04/02 07:13:41;;;;;;;2.20;0.70;;;;;;;;;;5302816;28;20465;-68
2022/04/02 07:16:12;;;;;;;3.62;0.74;;;;;;;;;;5302328;28;20086;-68
2022/04/02 07:18:44;;;;;;;3.67;0.90;;;;;;;;;;5301504;28;20012;-68
2022/04/02 07:21:16;;;;;;;3.50;0.60;;;;;;;;;;5302612;28;20359;-68
2022/04/02 07:23:47;;;;;;;4.03;0.80;;;;;;;;;;5301893;28;20020;-68
2022/04/02 07:26:19;;;;;;;1.95;0.70;;;;;;;;;;5301841;28;20031;-68
2022/04/02 07:28:51;;;;;;;1.55;0.63;;;;;;;;;;5302036;28;20012;-68
2022/04/02 07:31:22;;;;;;;3.72;0.63;;;;;;;;;;5302382;28;20504;-68
2022/04/02 07:33:53;;;;;;;2.42;0.68;;;;;;;;;;5301215;28;20478;-68
2022/04/02 07:36:43;;;;;;;4.25;0.70;;;;;;;;;;5302707;28;20038;-68
2022/04/02 07:39:17;;;;;;;2.53;0.65;;;;;;;;;;5301744;28;20510;-68
2022/04/02 07:41:48;;;;;;;3.92;0.90;;;;;;;;;;5301951;28;20567;-68
2022/04/02 07:44:21;;;;;;;1.66;0.70;;;;;;;;;;5302436;28;20107;-69
2022/04/02 07:46:54;;;;;;;5.35;0.60;;;;;;;;;;5300909;28;20041;-69
2022/04/02 07:49:29;;;;;;;3.50;0.50;;;;;;;;;;5302313;28;20034;-69
2022/04/02 07:52:01;;;;;;;2.55;0.70;;;;;;;;;;5302010;28;20024;-70
2022/04/02 07:54:37;;;;;;;2.88;1.00;;;;;;;;;;5301515;28;20115;-69
2022/04/02 07:57:08;;;;;;;3.78;0.90;;;;;;;;;;5301984;28;20036;-69
2022/04/02 07:59:42;;;;;;;3.08;0.98;;;;;;;;;;5302318;28;20099;-68
2022/04/02 08:05:04;;;;;;;2.33;0.88;;;;;;;;;;5302227;28;20021;-69
2022/04/02 08:07:37;;;;;;;4.03;0.70;;;;;;;;;;5301095;28;20016;-70
2022/04/02 08:10:10;;;;;;;2.63;0.80;;;;;;;;;;5301509;28;20111;-69
2022/04/02 08:12:41;;;;;;;5.25;0.77;;;;;;;;;;5301745;28;20034;-69
2022/04/02 08:15:16;;;;;;;2.90;0.90;;;;;;;;;;5300964;28;20103;-69
2022/04/02 08:17:48;;;;;;;3.40;0.85;;;;;;;;;;5301130;28;20041;-69
2022/04/02 08:20:20;;;;;;;3.65;1.30;;;;;;;;;;5301809;28;20012;-69
2022/04/02 08:22:52;;;;;;;4.53;0.80;;;;;;;;;;5300682;28;20016;-69
2022/04/02 08:25:24;;;;;;;3.60;0.90;;;;;;;;;;5301760;28;20016;-68
2022/04/02 08:28:07;;;;;;;4.03;1.05;;;;;;;;;;5301222;28;20077;-69
2022/04/02 08:30:44;;;;;;;5.95;1.05;;;;;;;;;;5301510;28;20012;-69
2022/04/02 08:33:15;;;;;;;2.15;1.08;;;;;;;;;;5302215;28;20020;-68
2022/04/02 08:35:46;;;;;;;4.93;1.10;;;;;;;;;;5300355;28;20077;-69
2022/04/02 08:38:27;;;;;;;5.78;1.13;;;;;;;;;;5303473;28;20282;-69
2022/04/02 08:41:17;;;;;;;3.55;0.90;;;;;;;;;;5305127;28;20043;-68
2022/04/02 08:43:59;;;;;;;2.33;0.70;;;;;;;;;;5307868;28;20493;-68
2022/04/02 08:46:35;;;;;;;2.72;0.90;;;;;;;;;;5318847;28;20497;-69
2022/04/02 08:49:25;;;;;;;3.92;1.10;;;;;;;;;;5317545;28;20478;-68
2022/04/02 08:52:14;;;;;;;2.72;1.05;;;;;;;;;;5316292;28;20126;-67
2022/04/02 08:54:51;;;;;;;3.33;0.90;;;;;;;;;;5319590;28;20454;-68
2022/04/02 08:57:28;;;;;;;4.68;1.40;;;;;;;;;;5325151;28;20063;-68
2022/04/02 09:00:06;;;;;;;4.70;1.40;;;;;;;;;;5325778;28;20026;-69
2022/04/02 09:02:37;;;;;;;3.90;1.23;;;;;;;;;;5326353;28;20438;-69
2022/04/02 09:05:17;;;;;;;3.13;1.30;;;;;;;;;;5325612;28;20418;-68
2022/04/02 09:08:04;;;;;;;4.38;1.40;;;;;;;;;;5326000;28;20420;-68
2022/04/02 09:10:41;;;;;;;4.57;1.25;;;;;;;;;;5325553;28;20027;-69
2022/04/02 09:13:33;;;;;;;4.25;1.30;;;;;;;;;;5326252;28;20031;-69
2022/04/02 09:16:05;;;;;;;2.95;1.38;;;;;;;;;;5325885;28;20047;-68
2022/04/02 09:18:55;;;;;;;4.28;1.02;;;;;;;;;;5325258;28;20015;-69
2022/04/02 09:21:45;;;;;;;4.90;1.52;;;;;;;;;;5326513;28;20442;-69
2022/04/02 09:24:43;;;;;;;3.70;1.50;;;;;;;;;;5326028;28;20026;-67
2022/04/02 09:27:33;;;;;;;3.85;1.00;;;;;;;;;;5326394;28;20048;-68
2022/04/02 09:30:23;;;;;;;6.88;2.55;;;;;;;;;;5325896;28;20027;-67
2022/04/02 09:33:20;;;;;;;4.32;1.40;;;;;;;;;;5320776;28;20016;-68
2022/04/02 09:35:57;;;;;;;4.53;1.30;;;;;;;;;;5303451;28;20089;-68
2022/04/02 09:38:43;;;;;;;4.05;1.58;;;;;;;;;;5316084;28;20035;-68
2022/04/02 09:41:24;;;;;;;5.38;1.40;;;;;;;;;;5303935;28;20485;-68
2022/04/02 09:44:21;;;;;;;3.22;1.50;;;;;;;;;;5303981;28;20149;-68
2022/04/02 09:47:00;;;;;;;7.13;1.80;;;;;;;;;;5303360;28;20123;-68
2022/04/02 09:49:49;;;;;;;3.47;1.40;;;;;;;;;;5304229;28;20024;-68
2022/04/02 09:52:21;;;;;;;4.53;1.38;;;;;;;;;;5304505;28;20383;-68
2022/04/02 09:55:06;;;;;;;3.15;1.25;;;;;;;;;;5297341;28;20020;-68
2022/04/02 09:57:38;;;;;;;3.85;1.13;;;;;;;;;;5303851;28;20101;-68
2022/04/02 10:00:09;;;;;;;4.60;0.93;;;;;;;;;;5302984;28;20459;-68
2022/04/02 10:02:40;;;;;;;6.18;1.88;;;;;;;;;;5303942;28;20039;-68
2022/04/02 10:05:14;;;;;;;3.88;1.14;;;;;;;;;;5304187;28;20036;-68
2022/04/02 10:08:05;;;;;;;4.35;1.55;;;;;;;;;;5303475;28;20110;-69
2022/04/02 10:10:37;;;;;;;5.00;0.95;;;;;;;;;;5303312;28;20042;-68
2022/04/02 10:13:08;;;;;;;2.90;1.13;;;;;;;;;;5304202;28;20024;-69
2022/04/02 10:15:41;;;;;;;4.57;1.10;;;;;;;;;;5302843;28;20043;-68
2022/04/02 10:18:12;;;;;;;3.45;1.00;;;;;;;;;;5303809;28;20042;-69
2022/04/02 10:20:45;;;;;;;3.63;1.25;;;;;;;;;;5302786;28;20374;-68
2022/04/02 10:23:23;;;;;;;4.88;1.40;;;;;;;;;;5304133;28;20019;-69
2022/04/02 10:26:15;;;;;;;4.25;1.25;;;;;;;;;;5303340;28;20504;-69
2022/04/02 10:28:54;;;;;;;3.60;0.95;;;;;;;;;;5302478;28;20020;-69
2022/04/02 10:31:31;;;;;;;4.20;1.45;;;;;;;;;;5320180;28;20152;-69
2022/04/02 10:34:12;;;;;;;3.92;1.20;;;;;;;;;;5306352;28;20122;-68
2022/04/02 10:36:50;;;;;;;5.07;1.33;;;;;;;;;;5300800;28;20067;-68
2022/04/02 10:39:24;;;;;;;4.50;1.27;;;;;;;;;;5301256;28;20537;-68
2022/04/02 10:42:00;;;;;;;4.05;1.95;;;;;;;;;;5299994;28;20459;-68
2022/04/02 10:44:44;;;;;;;5.63;1.42;;;;;;;;;;5301067;28;20041;-69
2022/04/02 10:47:17;;;;;;;5.03;1.45;;;;;;;;;;5301099;28;20020;-68
2022/04/02 10:49:50;;;;;;;2.83;1.15;;;;;;;;;;5299751;28;20314;-69
2022/04/02 10:52:22;;;;;;;7.00;1.70;;;;;;;;;;5302710;28;20221;-68
2022/04/02 10:54:53;;;;;;;3.38;1.33;;;;;;;;;;5302955;28;20012;-69
2022/04/02 10:57:28;;;;;;;5.32;1.55;;;;;;;;;;5302913;28;20386;-68
2022/04/02 11:00:02;;;;;;;3.50;1.20;;;;;;;;;;5312296;28;20008;-68
2022/04/02 11:02:59;;;;;;;6.13;1.98;;;;;;;;;;5312043;28;20520;-69
2022/04/02 11:05:34;;;;;;;4.65;1.60;;;;;;;;;;5308286;28;20027;-69
2022/04/02 11:08:10;;;;;;;5.15;1.45;;;;;;;;;;5312206;28;20012;-69
2022/04/02 11:10:46;;;;;;;6.65;1.10;;;;;;;;;;5311413;28;20026;-68
2022/04/02 11:13:28;;;;;;;4.00;1.58;;;;;;;;;;5306597;28;20080;-67
2022/04/02 11:15:59;;;;;;;4.80;0.90;;;;;;;;;;5307035;28;20040;-69
2022/04/02 11:18:30;;;;;;;2.76;0.80;;;;;;;;;;5301793;28;20020;-67
2022/04/02 11:21:03;;;;;;;6.47;2.53;;;;;;;;;;5302120;28;20013;-66
2022/04/02 11:23:41;;;;;;;3.33;1.05;;;;;;;;;;5302481;28;20012;-68
2022/04/02 11:26:14;;;;;;;2.72;0.85;;;;;;;;;;5301645;28;20028;-68
2022/04/02 11:28:49;;;;;;;3.05;0.90;;;;;;;;;;5301814;28;20020;-68
2022/04/02 11:31:26;;;;;;;3.65;0.98;;;;;;;;;;5301809;28;20032;-67
2022/04/02 11:33:58;;;;;;;3.28;0.90;;;;;;;;;;5301888;28;20173;-67
2022/04/02 11:36:41;;;;;;;2.83;0.88;;;;;;;;;;5302307;28;20115;-68
2022/04/02 11:39:22;;;;;;;3.95;1.17;;;;;;;;;;5301408;28;20056;-69
2022/04/02 11:41:55;;;;;;;4.45;1.00;;;;;;;;;;5300912;28;20036;-69
2022/04/02 11:44:36;;;;;;;2.92;1.27;;;;;;;;;;5302358;28;20020;-68
2022/04/02 11:47:08;;;;;;;2.08;0.90;;;;;;;;;;5301490;28;20023;-69
2022/04/02 11:49:40;;;;;;;2.35;0.70;;;;;;;;;;5301999;28;20024;-69
2022/04/02 11:52:13;;;;;;;3.10;0.90;;;;;;;;;;5301041;28;20024;-69
2022/04/02 11:54:47;;;;;;;1.65;0.70;;;;;;;;;;5301490;28;20095;-68
2022/04/02 11:57:18;;;;;;;3.78;0.50;;;;;;;;;;5302236;28;20402;-68
2022/04/02 11:59:54;;;;;;;3.45;0.60;;;;;;;;;;5300726;28;20020;-68
2022/04/02 12:02:35;;;;;;;1.20;0.50;;;;;;;;;;5302230;28;20130;-68
2022/04/02 12:05:08;;;;;;;2.10;0.50;;;;;;;;;;5301979;28;20057;-69
2022/04/02 12:07:46;;;;;;;2.10;0.60;;;;;;;;;;5301330;28;20088;-69
2022/04/02 12:10:17;;;;;;;2.63;0.50;;;;;;;;;;5302192;28;20024;-69
2022/04/02 12:12:49;;;;;;;1.58;0.60;;;;;;;;;;5302629;28;20882;-69
2022/04/02 12:15:21;;;;;;;3.25;0.52;;;;;;;;;;5305587;28;20078;-70
2022/04/02 12:18:02;;;;;;;1.65;0.60;;;;;;;;;;5305942;28;20063;-69
2022/04/02 12:20:38;;;;;;;3.40;0.80;;;;;;;;;;5305263;28;20073;-68
2022/04/02 12:23:09;;;;;;;1.63;0.60;;;;;;;;;;5306026;28;20023;-69
2022/04/02 12:25:41;;;;;;;3.45;0.80;;;;;;;;;;5305976;28;20024;-68
2022/04/02 12:28:12;;;;;;;7.43;0.82;;;;;;;;;;5305211;28;20024;-68
2022/04/02 12:30:48;;;;;;;2.85;0.70;;;;;;;;;;5306173;28;20039;-70
2022/04/02 12:33:21;;;;;;;2.10;0.70;;;;;;;;;;5306127;28;20733;-69
2022/04/02 12:35:56;;;;;;;2.22;0.70;;;;;;;;;;5304762;28;20370;-68
2022/04/02 12:38:29;;;;;;;1.75;0.60;;;;;;;;;;5306036;28;20023;-69
2022/04/02 12:41:00;;;;;;;2.58;0.57;;;;;;;;;;5305702;28;20036;-69
2022/04/02 12:43:34;;;;;;;1.90;0.55;;;;;;;;;;5304816;28;20367;-69
2022/04/02 12:46:05;;;;;;;1.60;0.52;;;;;;;;;;5305777;28;20047;-69
2022/04/02 12:48:40;;;;;;;1.30;0.45;;;;;;;;;;5304803;28;20116;-69
2022/04/02 12:51:13;;;;;;;3.10;0.52;;;;;;;;;;5305694;28;20070;-69
2022/04/02 12:53:47;;;;;;;3.78;0.60;;;;;;;;;;5305339;28;20035;-69
2022/04/02 12:56:20;;;;;;;2.17;0.40;;;;;;;;;;5305004;28;20497;-69
2022/04/02 12:58:52;;;;;;;2.63;0.60;;;;;;;;;;5305187;28;20092;-69
2022/04/02 13:01:26;;;;;;;2.63;0.52;;;;;;;;;;5305579;28;20016;-69
2022/04/02 13:03:57;;;;;;;2.03;0.50;;;;;;;;;;5304376;28;20379;-69
2022/04/02 13:06:30;;;;;;;3.33;0.50;;;;;;;;;;5305457;28;20016;-69
2022/04/02 13:09:04;;;;;;;1.92;0.50;;;;;;;;;;5304996;28;20266;-69
2022/04/02 13:11:50;;;;;;;2.58;0.50;;;;;;;;;;5304277;28;20028;-69
2022/04/02 13:14:21;;;;;;;1.58;0.50;;;;;;;;;;5305785;28;20420;-69
2022/04/02 13:17:06;;;;;;;2.63;0.50;;;;;;;;;;5303246;28;20154;-69
2022/04/02 13:22:36;;;;;;;;;;;;;;;;;;5305285;28;20028;-68
2022/04/02 13:25:12;;;;;;;2.72;0.50;;;;;;;;;;5303693;28;19904;-68
2022/04/02 13:28:06;;;;;;;3.53;0.60;;;;;;;;;;5305045;28;20431;-70
2022/04/02 13:30:38;;;;;;;2.50;0.60;;;;;;;;;;5303752;28;20530;-68
2022/04/02 13:33:25;;;;;;;3.40;0.82;;;;;;;;;;5304903;28;20032;-68
2022/04/02 13:36:08;;;;;;;2.20;0.70;;;;;;;;;;5304227;28;20048;-69
2022/04/02 13:38:51;;;;;;;1.20;0.50;;;;;;;;;;5303928;28;20031;-68
2022/04/02 13:41:36;;;;;;;4.38;0.60;;;;;;;;;;5305104;28;20040;-70
2022/04/02 13:44:20;;;;;;;2.83;0.93;;;;;;;;;;5304693;28;20023;-68
2022/04/02 13:46:53;;;;;;;3.15;0.60;;;;;;;;;;5303476;28;20043;-68
2022/04/02 13:49:49;;;;;;;5.22;0.70;;;;;;;;;;5304681;28;20484;-68
2022/04/02 13:52:22;;;;;;;3.83;0.60;;;;;;;;;;5303744;28;20047;-68
2022/04/02 13:55:06;;;;;;;3.60;0.70;;;;;;;;;;5303907;28;20463;-69
2022/04/02 13:57:38;;;;;;;3.85;0.73;;;;;;;;;;5303865;28;20359;-68
2022/04/02 14:00:10;;;;;;;2.42;0.70;;;;;;;;;;5303416;28;20019;-68
2022/04/02 14:02:46;;;;;;;3.05;0.50;;;;;;;;;;5303897;28;20023;-68
2022/04/02 14:05:30;;;;;;;1.33;0.60;;;;;;;;;;5301416;28;20577;-70
2022/04/02 14:08:02;;;;;;;3.45;0.60;;;;;;;;;;5302693;28;20020;-68
2022/04/02 14:10:40;;;;;;;2.83;0.70;;;;;;;;;;5303659;28;20457;-69
2022/04/02 14:13:14;;;;;;;2.88;0.60;;;;;;;;;;5303058;28;20023;-68
2022/04/02 14:16:05;;;;;;;5.13;0.90;;;;;;;;;;5303043;28;20032;-69
2022/04/02 14:18:37;;;;;;;4.90;2.05;;;;;;;;;;5301879;28;20368;-68
2022/04/02 14:21:11;;;;;;;2.40;0.63;;;;;;;;;;5302127;28;20027;-68
2022/04/02 14:23:48;;;;;;;3.10;0.70;;;;;;;;;;5302979;28;20024;-70
2022/04/02 14:26:34;;;;;;;4.97;0.60;;;;;;;;;;5303852;28;20405;-70
2022/04/02 14:29:23;;;;;;;3.17;0.60;;;;;;;;;;5302717;28;20035;-70
2022/04/02 14:32:03;;;;;;;3.40;0.75;;;;;;;;;;5302609;28;20021;-70
2022/04/02 14:34:53;;;;;;;2.28;0.52;;;;;;;;;;5301864;28;20467;-68
2022/04/02 14:37:43;;;;;;;3.67;0.68;;;;;;;;;;5302833;28;20042;-68
2022/04/02 14:40:14;;;;;;;3.63;0.70;;;;;;;;;;5299184;28;20035;-68
2022/04/02 14:42:57;;;;;;;2.70;0.60;;;;;;;;;;5305039;28;20418;-68
2022/04/02 14:45:47;;;;;;;2.22;0.50;;;;;;;;;;5302318;28;20463;-68
2022/04/02 14:48:21;;;;;;;2.13;0.45;;;;;;;;;;5301761;28;20128;-68
2022/04/02 14:51:13;;;;;;;3.13;0.55;;;;;;;;;;5301452;28;20071;-68
2022/04/02 14:54:13;;;;;;;3.10;0.52;;;;;;;;;;5298481;28;20020;-68
2022/04/02 14:57:03;;;;;;;7.18;3.08;;;;;;;;;;5245430;28;20395;-69
2022/04/02 14:59:53;;;;;;;2.17;0.68;;;;;;;;;;5301808;28;20093;-69
2022/04/02 15:02:38;;;;;;;2.97;0.50;;;;;;;;;;5300925;28;20062;-68
2022/04/02 15:05:26;;;;;;;2.60;0.50;;;;;;;;;;5301413;28;20020;-68
2022/04/02 15:08:16;;;;;;;1.83;0.50;;;;;;;;;;5301820;28;20032;-69
2022/04/02 15:10:49;;;;;;;3.10;0.50;;;;;;;;;;5300980;28;20111;-69
2022/04/02 15:13:22;;;;;;;4.35;0.65;;;;;;;;;;5301942;28;20020;-69
2022/04/02 15:15:54;;;;;;;2.08;0.50;;;;;;;;;;5301021;28;20044;-69
2022/04/02 15:18:30;;;;;;;3.25;0.52;;;;;;;;;;5300967;28;20386;-70
2022/04/02 15:21:08;;;;;;;3.80;0.75;;;;;;;;;;5301436;28;20019;-69
2022/04/02 15:23:48;;;;;;;1.58;0.73;;;;;;;;;;5301000;28;20031;-68
2022/04/02 15:26:21;;;;;;;4.13;1.00;;;;;;;;;;5302098;28;20039;-69
2022/04/02 15:29:12;;;;;;;1.38;0.50;;;;;;;;;;5301217;28;20494;-69
2022/04/02 15:32:02;;;;;;;5.82;2.30;;;;;;;;;;5300965;28;20027;-69
2022/04/02 15:34:41;;;;;;;5.97;1.80;;;;;;;;;;5301462;28;20057;-69
2022/04/02 15:37:13;;;;;;;2.83;0.90;;;;;;;;;;5300532;28;20032;-69
2022/04/02 15:39:44;;;;;;;1.52;0.50;;;;;;;;;;5301235;28;20081;-69